Time;durP1;ratioP1;P1;durP2;ratioP2;P2;SDS_P1;SDS_P2;PMS_P1;PMS_P2;Temp;Humidity;BMP_temperature;BMP_pressure;BME280_temperature;BME280_humidity;BME280_pressure;Samples;Min_cycle;Max_cycle;Signal;HPM_P1;HPM_P2
2022/11/08 00:01:32;;;;;;;;;;;;;;;;;;4988981;28;19961;-61
2022/11/08 00:03:58;;;;;;;;;;;;;;;;;;4988132;28;19925;-58
2022/11/08 00:14:37;;;;;;;;;;;;;;;;;;4988679;28;20005;-58
2022/11/08 00:17:07;;;;;;;;;;;;;;;;;;4988596;28;20471;-59
2022/11/08 00:19:40;;;;;;;;;;;;;;;;;;4987685;28;19977;-61
2022/11/08 00:22:09;;;;;;;;;;;;;;;;;;4988859;28;19932;-59
2022/11/08 00:24:35;;;;;;;;;;;;;;;;;;4991441;28;19926;-59
2022/11/08 00:27:01;;;;;;;;;;;;;;;;;;4992807;28;19925;-59
2022/11/08 00:29:27;;;;;;;;;;;;;;;;;;4992316;28;19980;-61
2022/11/08 00:31:55;;;;;;;;;;;;;;;;;;4991968;28;19934;-59
2022/11/08 00:34:27;;;;;;;;;;;;;;;;;;4991919;28;19932;-60
2022/11/08 00:37:00;;;;;;;;;;;;;;;;;;4992300;28;19926;-60
2022/11/08 00:39:34;;;;;;;;;;;;;;;;;;4973784;28;20295;-60
2022/11/08 00:42:07;;;;;;;;;;;;;;;;;;4992341;28;19930;-59
2022/11/08 00:44:40;;;;;;;;;;;;;;;;;;4991628;28;20004;-58
2022/11/08 00:47:13;;;;;;;;;;;;;;;;;;4992117;28;20041;-59
2022/11/08 00:49:45;;;;;;;;;;;;;;;;;;4991645;28;19929;-58
2022/11/08 00:52:18;;;;;;;;;;;;;;;;;;4991193;28;20349;-58
2022/11/08 00:54:51;;;;;;;;;;;;;;;;;;4990835;28;19926;-58
2022/11/08 00:57:21;;;;;;;;;;;;;;;;;;4990829;28;19984;-58
2022/11/08 00:59:46;;;;;;;;;;;;;;;;;;4991635;28;19933;-58
2022/11/08 01:02:13;;;;;;;;;;;;;;;;;;4991518;28;19925;-59
2022/11/08 01:04:38;;;;;;;;;;;;;;;;;;4973587;28;19926;-58
2022/11/08 01:07:08;;;;;;;;;;;;;;;;;;4991876;28;19926;-63
2022/11/08 01:09:41;;;;;;;;;;;;;;;;;;4990598;28;19926;-58
2022/11/08 01:12:13;;;;;;;;;;;;;;;;;;4974326;28;19925;-59
2022/11/08 01:14:46;;;;;;;;;;;;;;;;;;4991096;28;20005;-59
2022/11/08 01:17:19;;;;;;;;;;;;;;;;;;4991022;28;20049;-58
2022/11/08 01:19:49;;;;;;;;;;;;;;;;;;4991174;28;19936;-58
2022/11/08 01:22:16;;;;;;;;;;;;;;;;;;4990993;28;20467;-57
2022/11/08 01:24:42;;;;;;;;;;;;;;;;;;4990093;28;20013;-58
2022/11/08 01:27:10;;;;;;;;;;;;;;;;;;4991502;28;19930;-59
2022/11/08 01:29:42;;;;;;;;;;;;;;;;;;4990900;28;19976;-59
2022/11/08 01:32:14;;;;;;;;;;;;;;;;;;4991093;28;19925;-59
2022/11/08 01:34:47;;;;;;;;;;;;;;;;;;4989780;28;19926;-59
2022/11/08 01:37:20;;;;;;;;;;;;;;;;;;4991138;28;19937;-59
2022/11/08 01:39:53;;;;;;;;;;;;;;;;;;4989967;28;19926;-59
2022/11/08 01:42:26;;;;;;;;;;;;;;;;;;4990913;28;19926;-59
2022/11/08 01:44:56;;;;;;;;;;;;;;;;;;4989671;28;20339;-59
2022/11/08 01:47:29;;;;;;;;;;;;;;;;;;4991334;28;19964;-59
2022/11/08 01:50:02;;;;;;;;;;;;;;;;;;4990857;28;19925;-59
2022/11/08 01:52:35;;;;;;;;;;;;;;;;;;4991205;28;19949;-58
2022/11/08 01:55:04;;;;;;;;;;;;;;;;;;4990122;28;19926;-58
2022/11/08 01:57:30;;;;;;;;;;;;;;;;;;4973594;28;19933;-58
2022/11/08 01:59:58;;;;;;;;;;;;;;;;;;4979981;28;19962;-58
2022/11/08 02:02:27;;;;;;;;;;;;;;;;;;4971097;28;19937;-58
2022/11/08 02:04:53;;;;;;;;;;;;;;;;;;4972705;28;19930;-59
2022/11/08 02:07:19;;;;;;;;;;;;;;;;;;4988015;28;19969;-59
2022/11/08 02:09:45;;;;;;;;;;;;;;;;;;4987004;28;19930;-58
2022/11/08 02:12:11;;;;;;;;;;;;;;;;;;4988091;28;20292;-58
2022/11/08 02:14:37;;;;;;;;;;;;;;;;;;4987445;28;19980;-59
2022/11/08 02:17:03;;;;;;;;;;;;;;;;;;4987105;28;19926;-58
2022/11/08 02:19:29;;;;;;;;;;;;;;;;;;4987668;28;19929;-59
2022/11/08 02:21:55;;;;;;;;;;;;;;;;;;4987208;28;19941;-58
2022/11/08 02:24:21;;;;;;;;;;;;;;;;;;4987044;28;20540;-58
2022/11/08 02:26:47;;;;;;;;;;;;;;;;;;4987212;28;20430;-59
2022/11/08 02:29:13;;;;;;;;;;;;;;;;;;4987990;28;19976;-58
2022/11/08 02:31:39;;;;;;;;;;;;;;;;;;4970123;28;19929;-59
2022/11/08 02:34:05;;;;;;;;;;;;;;;;;;4987765;28;19929;-62
2022/11/08 02:36:31;;;;;;;;;;;;;;;;;;4987633;28;20639;-60
2022/11/08 02:38:57;;;;;;;;;;;;;;;;;;4986124;28;19980;-58
2022/11/08 02:41:23;;;;;;;;;;;;;;;;;;4987558;28;19959;-61
2022/11/08 02:43:49;;;;;;;;;;;;;;;;;;4987312;28;19926;-58
2022/11/08 02:46:15;;;;;;;;;;;;;;;;;;4986536;28;19926;-59
2022/11/08 02:48:41;;;;;;;;;;;;;;;;;;4986995;28;19930;-58
2022/11/08 02:51:07;;;;;;;;;;;;;;;;;;4986767;28;19925;-59
2022/11/08 02:53:33;;;;;;;;;;;;;;;;;;4987416;28;19973;-58
2022/11/08 02:55:59;;;;;;;;;;;;;;;;;;4979452;28;20526;-58
2022/11/08 02:58:26;;;;;;;;;;;;;;;;;;4987056;28;19975;-59
2022/11/08 03:00:52;;;;;;;;;;;;;;;;;;4986911;28;20407;-59
2022/11/08 03:03:18;;;;;;;;;;;;;;;;;;4986188;28;20443;-59
2022/11/08 03:05:46;;;;;;;;;;;;;;;;;;4986562;28;19949;-60
2022/11/08 03:08:12;;;;;;;;;;;;;;;;;;4986401;28;19926;-59
2022/11/08 03:10:41;;;;;;;;;;;;;;;;;;4986934;28;19980;-59
2022/11/08 03:13:14;;;;;;;;;;;;;;;;;;4987274;28;19926;-59
2022/11/08 03:15:47;;;;;;;;;;;;;;;;;;4986345;28;20261;-59
2022/11/08 03:18:16;;;;;;;;;;;;;;;;;;4948594;28;20108;-58
2022/11/08 03:20:43;;;;;;;;;;;;;;;;;;4948343;29;20364;-59
2022/11/08 03:23:09;;;;;;;;;;;;;;;;;;4946588;29;19985;-58
2022/11/08 03:25:37;;;;;;;;;;;;;;;;;;4947855;29;19961;-61
2022/11/08 03:28:10;;;;;;;;;;;;;;;;;;4947272;28;20372;-62
2022/11/08 03:30:43;;;;;;;;;;;;;;;;;;4947892;28;19930;-62
2022/11/08 03:33:16;;;;;;;;;;;;;;;;;;4947867;29;20331;-59
2022/11/08 03:35:48;;;;;;;;;;;;;;;;;;4947640;28;19931;-59
2022/11/08 03:38:21;;;;;;;;;;;;;;;;;;4946218;29;19930;-59
2022/11/08 03:40:54;;;;;;;;;;;;;;;;;;4947562;28;20033;-60
2022/11/08 03:43:27;;;;;;;;;;;;;;;;;;4948052;28;20912;-58
2022/11/08 03:46:00;;;;;;;;;;;;;;;;;;4947484;28;19935;-58
2022/11/08 03:48:33;;;;;;;;;;;;;;;;;;4947769;28;19930;-59
2022/11/08 03:51:02;;;;;;;;;;;;;;;;;;4947417;28;20689;-58
2022/11/08 03:53:28;;;;;;;;;;;;;;;;;;4946820;29;19969;-58
2022/11/08 03:55:54;;;;;;;;;;;;;;;;;;4947513;29;19930;-58
2022/11/08 03:58:23;;;;;;;;;;;;;;;;;;4946549;29;19931;-58
2022/11/08 04:00:57;;;;;;;;;;;;;;;;;;4947164;28;19930;-59
2022/11/08 04:03:31;;;;;;;;;;;;;;;;;;4947098;28;19990;-59
2022/11/08 04:06:00;;;;;;;;;;;;;;;;;;4947650;28;19938;-58
2022/11/08 04:08:26;;;;;;;;;;;;;;;;;;4945973;29;19934;-58
2022/11/08 04:10:52;;;;;;;;;;;;;;;;;;4947426;29;19946;-59
2022/11/08 04:16:04;;;;;;;;;;;;;;;;;;4950715;28;19931;-58
2022/11/08 04:21:23;;;;;;;;;;;;;;;;;;4985415;28;20281;-59
2022/11/08 04:23:57;;;;;;;;;;;;;;;;;;4985522;28;19930;-59
2022/11/08 04:26:29;;;;;;;;;;;;;;;;;;4984321;28;19926;-58
2022/11/08 04:28:59;;;;;;;;;;;;;;;;;;4985665;28;20406;-58
2022/11/08 04:31:25;;;;;;;;;;;;;;;;;;4985435;28;20024;-59
2022/11/08 04:33:51;;;;;;;;;;;;;;;;;;4985316;28;19925;-61
2022/11/08 04:36:17;;;;;;;;;;;;;;;;;;4985931;28;19957;-58
2022/11/08 04:38:44;;;;;;;;;;;;;;;;;;4984111;28;19976;-58
2022/11/08 04:41:16;;;;;;;;;;;;;;;;;;4985594;28;19930;-59
2022/11/08 04:43:49;;;;;;;;;;;;;;;;;;4985463;28;19976;-59
2022/11/08 04:46:21;;;;;;;;;;;;;;;;;;4985199;28;19929;-59
2022/11/08 04:48:51;;;;;;;;;;;;;;;;;;4985426;28;19985;-57
2022/11/08 04:51:20;;;;;;;;;;;;;;;;;;4985404;28;20391;-58
2022/11/08 04:53:53;;;;;;;;;;;;;;;;;;4984990;28;20067;-59
2022/11/08 04:56:26;;;;;;;;;;;;;;;;;;4985341;28;20029;-59
2022/11/08 04:58:59;;;;;;;;;;;;;;;;;;4984381;28;19926;-59
2022/11/08 05:01:28;;;;;;;;;;;;;;;;;;4985504;28;19969;-59
2022/11/08 05:03:57;;;;;;;;;;;;;;;;;;4985489;28;19929;-59
2022/11/08 05:06:29;;;;;;;;;;;;;;;;;;4985419;28;20028;-59
2022/11/08 05:09:02;;;;;;;;;;;;;;;;;;4984096;28;19929;-58
2022/11/08 05:11:34;;;;;;;;;;;;;;;;;;4989085;28;19930;-60
2022/11/08 05:14:04;;;;;;;;;;;;;;;;;;4988645;28;19930;-63
2022/11/08 05:16:30;;;;;;;;;;;;;;;;;;4988245;28;19929;-59
2022/11/08 05:19:00;;;;;;;;;;;;;;;;;;4988851;28;20360;-58
2022/11/08 05:24:21;;;;;;;;;;;;;;;;;;4988022;28;19933;-58
2022/11/08 05:26:51;;;;;;;;;;;;;;;;;;4988632;28;19936;-59
2022/11/08 05:29:20;;;;;;;;;;;;;;;;;;4988108;28;20413;-60
2022/11/08 05:31:53;;;;;;;;;;;;;;;;;;4988687;28;20319;-59
2022/11/08 05:34:23;;;;;;;;;;;;;;;;;;4987575;28;19945;-59
2022/11/08 05:36:49;;;;;;;;;;;;;;;;;;4988600;28;20008;-58
2022/11/08 05:39:18;;;;;;;;;;;;;;;;;;4986900;28;20316;-59
2022/11/08 05:41:48;;;;;;;;;;;;;;;;;;4988481;28;19929;-58
2022/11/08 05:44:14;;;;;;;;;;;;;;;;;;4988288;28;20334;-59
2022/11/08 05:46:40;;;;;;;;;;;;;;;;;;4988395;28;19937;-58
2022/11/08 05:49:06;;;;;;;;;;;;;;;;;;4988617;28;20032;-58
2022/11/08 05:51:32;;;;;;;;;;;;;;;;;;4988324;28;19929;-58
2022/11/08 05:53:58;;;;;;;;;;;;;;;;;;4985919;28;19941;-58
2022/11/08 05:56:24;;;;;;;;;;;;;;;;;;4996240;28;20028;-58
2022/11/08 05:58:50;;;;;;;;;;;;;;;;;;4993767;28;20398;-59
2022/11/08 06:01:16;;;;;;;;;;;;;;;;;;4982663;28;19926;-58
2022/11/08 06:03:42;;;;;;;;;;;;;;;;;;4975542;28;19926;-60
2022/11/08 06:06:08;;;;;;;;;;;;;;;;;;4974341;28;19977;-59
2022/11/08 06:08:34;;;;;;;;;;;;;;;;;;4976858;28;19983;-60
2022/11/08 06:11:00;;;;;;;;;;;;;;;;;;4956851;28;19926;-60
2022/11/08 06:13:26;;;;;;;;;;;;;;;;;;4969578;28;19926;-58
2022/11/08 06:15:52;;;;;;;;;;;;;;;;;;4975061;28;19926;-58
2022/11/08 06:18:18;;;;;;;;;;;;;;;;;;4982791;28;19930;-60
2022/11/08 06:20:44;;;;;;;;;;;;;;;;;;4985001;28;19973;-59
2022/11/08 06:23:10;;;;;;;;;;;;;;;;;;4977096;28;19952;-58
2022/11/08 06:25:36;;;;;;;;;;;;;;;;;;4983133;28;19926;-59
2022/11/08 06:28:02;;;;;;;;;;;;;;;;;;4974694;28;19926;-58
2022/11/08 06:30:28;;;;;;;;;;;;;;;;;;4969911;28;20448;-59
2022/11/08 06:32:54;;;;;;;;;;;;;;;;;;4979478;28;20038;-58
2022/11/08 06:35:20;;;;;;;;;;;;;;;;;;4979892;28;20379;-58
2022/11/08 06:37:46;;;;;;;;;;;;;;;;;;4956885;28;20010;-58
2022/11/08 06:40:12;;;;;;;;;;;;;;;;;;4958259;28;19930;-59
2022/11/08 06:42:39;;;;;;;;;;;;;;;;;;4972297;28;19984;-59
2022/11/08 06:45:05;;;;;;;;;;;;;;;;;;4975631;28;19973;-58
2022/11/08 06:47:31;;;;;;;;;;;;;;;;;;4970190;28;19944;-57
2022/11/08 06:49:57;;;;;;;;;;;;;;;;;;4981470;28;20366;-59
2022/11/08 06:52:23;;;;;;;;;;;;;;;;;;4987458;28;19977;-58
2022/11/08 06:54:49;;;;;;;;;;;;;;;;;;4988722;28;20013;-58
2022/11/08 06:57:15;;;;;;;;;;;;;;;;;;4988818;28;19961;-58
2022/11/08 06:59:41;;;;;;;;;;;;;;;;;;4971559;28;19940;-60
2022/11/08 07:02:07;;;;;;;;;;;;;;;;;;4988348;28;20012;-58
2022/11/08 07:04:33;;;;;;;;;;;;;;;;;;4987585;28;19965;-59
2022/11/08 07:06:59;;;;;;;;;;;;;;;;;;4989245;28;19968;-58
2022/11/08 07:09:25;;;;;;;;;;;;;;;;;;4987353;28;19932;-60
2022/11/08 07:11:51;;;;;;;;;;;;;;;;;;4989108;28;19926;-58
2022/11/08 07:14:17;;;;;;;;;;;;;;;;;;4971415;28;19929;-58
2022/11/08 07:16:43;;;;;;;;;;;;;;;;;;4988230;28;19933;-59
2022/11/08 07:19:09;;;;;;;;;;;;;;;;;;4989202;28;19932;-58
2022/11/08 07:21:35;;;;;;;;;;;;;;;;;;4988897;28;19925;-58
2022/11/08 07:24:02;;;;;;;;;;;;;;;;;;4988306;28;19972;-58
2022/11/08 07:26:27;;;;;;;;;;;;;;;;;;4988613;28;19934;-59
2022/11/08 07:28:53;;;;;;;;;;;;;;;;;;4988528;28;20517;-58
2022/11/08 07:31:20;;;;;;;;;;;;;;;;;;4988474;28;19926;-58
2022/11/08 07:33:46;;;;;;;;;;;;;;;;;;4987971;28;19932;-58
2022/11/08 07:36:12;;;;;;;;;;;;;;;;;;4988669;28;20028;-60
2022/11/08 07:38:38;;;;;;;;;;;;;;;;;;4988130;28;20618;-58
2022/11/08 07:41:04;;;;;;;;;;;;;;;;;;4988380;28;19937;-60
2022/11/08 07:43:30;;;;;;;;;;;;;;;;;;4988450;28;20015;-58
2022/11/08 07:45:56;;;;;;;;;;;;;;;;;;4988641;28;20332;-58
2022/11/08 07:48:22;;;;;;;;;;;;;;;;;;4987956;28;19933;-58
2022/11/08 07:50:48;;;;;;;;;;;;;;;;;;4988507;28;19929;-58
2022/11/08 07:53:14;;;;;;;;;;;;;;;;;;4987097;28;19934;-59
2022/11/08 07:55:40;;;;;;;;;;;;;;;;;;4988551;28;20260;-58
2022/11/08 07:58:06;;;;;;;;;;;;;;;;;;4987676;28;19925;-58
2022/11/08 08:00:32;;;;;;;;;;;;;;;;;;4987907;28;19945;-58
2022/11/08 08:02:58;;;;;;;;;;;;;;;;;;4987709;28;19969;-58
2022/11/08 08:05:24;;;;;;;;;;;;;;;;;;4988114;28;20415;-58
2022/11/08 08:07:50;;;;;;;;;;;;;;;;;;4970343;28;20024;-60
2022/11/08 08:10:16;;;;;;;;;;;;;;;;;;4988106;28;19933;-57
2022/11/08 08:12:42;;;;;;;;;;;;;;;;;;4988645;28;19941;-58
2022/11/08 08:15:08;;;;;;;;;;;;;;;;;;4988177;28;20360;-58
2022/11/08 08:17:34;;;;;;;;;;;;;;;;;;4987538;28;20562;-57
2022/11/08 08:20:00;;;;;;;;;;;;;;;;;;4987551;28;19926;-58
2022/11/08 08:22:26;;;;;;;;;;;;;;;;;;4987183;28;20419;-58
2022/11/08 08:24:52;;;;;;;;;;;;;;;;;;4988134;28;19926;-57
2022/11/08 08:27:18;;;;;;;;;;;;;;;;;;4988229;28;19983;-58
2022/11/08 08:29:44;;;;;;;;;;;;;;;;;;4988043;28;19980;-58
2022/11/08 08:32:10;;;;;;;;;;;;;;;;;;4988093;28;20535;-58
2022/11/08 08:34:36;;;;;;;;;;;;;;;;;;4988025;28;19926;-59
2022/11/08 08:37:02;;;;;;;;;;;;;;;;;;4986908;28;20020;-58
2022/11/08 08:39:28;;;;;;;;;;;;;;;;;;4987125;28;20375;-59
2022/11/08 08:41:54;;;;;;;;;;;;;;;;;;4988028;28;20447;-58
2022/11/08 08:44:20;;;;;;;;;;;;;;;;;;4990040;28;20027;-59
2022/11/08 08:46:46;;;;;;;;;;;;;;;;;;4991263;28;20056;-58
2022/11/08 08:49:12;;;;;;;;;;;;;;;;;;4991559;28;20387;-57
2022/11/08 08:51:38;;;;;;;;;;;;;;;;;;4991834;28;19933;-59
2022/11/08 08:54:04;;;;;;;;;;;;;;;;;;4990758;28;19949;-60
2022/11/08 08:56:30;;;;;;;;;;;;;;;;;;4991322;28;20008;-58
2022/11/08 08:58:56;;;;;;;;;;;;;;;;;;4990739;28;20020;-58
2022/11/08 09:01:22;;;;;;;;;;;;;;;;;;4991617;28;20370;-59
2022/11/08 09:03:48;;;;;;;;;;;;;;;;;;4991006;28;19984;-58
2022/11/08 09:06:14;;;;;;;;;;;;;;;;;;4990838;28;20391;-58
2022/11/08 09:08:40;;;;;;;;;;;;;;;;;;4990215;28;19933;-58
2022/11/08 09:11:06;;;;;;;;;;;;;;;;;;4991138;28;20489;-58
2022/11/08 09:13:32;;;;;;;;;;;;;;;;;;4991449;28;19973;-59
2022/11/08 09:15:58;;;;;;;;;;;;;;;;;;4991103;28;19930;-58
2022/11/08 09:18:24;;;;;;;;;;;;;;;;;;4990663;28;20000;-58
2022/11/08 09:20:50;;;;;;;;;;;;;;;;;;4991343;28;20384;-57
2022/11/08 09:23:16;;;;;;;;;;;;;;;;;;4990200;28;19973;-58
2022/11/08 09:25:42;;;;;;;;;;;;;;;;;;4991496;28;20403;-58
2022/11/08 09:28:08;;;;;;;;;;;;;;;;;;4990703;28;19930;-59
2022/11/08 09:30:34;;;;;;;;;;;;;;;;;;4990967;28;19925;-58
2022/11/08 09:33:00;;;;;;;;;;;;;;;;;;4990646;28;19926;-59
2022/11/08 09:35:26;;;;;;;;;;;;;;;;;;4989957;28;20426;-58
2022/11/08 09:37:52;;;;;;;;;;;;;;;;;;4989847;28;19926;-59
2022/11/08 09:40:18;;;;;;;;;;;;;;;;;;4990630;28;19933;-59
2022/11/08 09:42:44;;;;;;;;;;;;;;;;;;4991050;28;20291;-59
2022/11/08 09:45:10;;;;;;;;;;;;;;;;;;4990433;28;19933;-58
2022/11/08 09:47:36;;;;;;;;;;;;;;;;;;4973530;28;19947;-58
2022/11/08 09:50:02;;;;;;;;;;;;;;;;;;4990376;28;19926;-57
2022/11/08 09:52:28;;;;;;;;;;;;;;;;;;4972498;28;19949;-57
2022/11/08 09:54:54;;;;;;;;;;;;;;;;;;4989860;28;20380;-58
2022/11/08 09:57:20;;;;;;;;;;;;;;;;;;4990330;28;19937;-57
2022/11/08 09:59:46;;;;;;;;;;;;;;;;;;4990310;28;20419;-58
2022/11/08 10:02:12;;;;;;;;;;;;;;;;;;4989981;28;19933;-58
2022/11/08 10:04:38;;;;;;;;;;;;;;;;;;4990371;28;20327;-58
2022/11/08 10:07:04;;;;;;;;;;;;;;;;;;4989391;28;19953;-59
2022/11/08 10:09:30;;;;;;;;;;;;;;;;;;4990199;28;19953;-59
2022/11/08 10:11:56;;;;;;;;;;;;;;;;;;4990523;28;19926;-58
2022/11/08 10:14:23;;;;;;;;;;;;;;;;;;4972492;28;19926;-58
2022/11/08 10:16:48;;;;;;;;;;;;;;;;;;4986300;28;19933;-58
2022/11/08 10:19:14;;;;;;;;;;;;;;;;;;4989701;28;19948;-57
2022/11/08 10:21:40;;;;;;;;;;;;;;;;;;4971786;28;19928;-59
2022/11/08 10:24:06;;;;;;;;;;;;;;;;;;4989766;28;19972;-58
2022/11/08 10:26:32;;;;;;;;;;;;;;;;;;4989934;28;19934;-58
2022/11/08 10:28:58;;;;;;;;;;;;;;;;;;4989363;28;19930;-58
2022/11/08 10:31:24;;;;;;;;;;;;;;;;;;4989410;28;19937;-59
2022/11/08 10:33:50;;;;;;;;;;;;;;;;;;4989706;28;20463;-60
2022/11/08 10:36:16;;;;;;;;;;;;;;;;;;4989582;28;19926;-60
2022/11/08 10:38:42;;;;;;;;;;;;;;;;;;4989252;28;19936;-58
2022/11/08 10:41:08;;;;;;;;;;;;;;;;;;4989306;28;20008;-59
2022/11/08 10:43:34;;;;;;;;;;;;;;;;;;4989836;28;19941;-58
2022/11/08 10:46:00;;;;;;;;;;;;;;;;;;4989513;28;19929;-58
2022/11/08 10:48:26;;;;;;;;;;;;;;;;;;4989331;28;19957;-59
2022/11/08 10:50:52;;;;;;;;;;;;;;;;;;4972067;28;19926;-59
2022/11/08 10:53:18;;;;;;;;;;;;;;;;;;4985135;28;19922;-59
2022/11/08 10:55:44;;;;;;;;;;;;;;;;;;4989107;28;19932;-58
2022/11/08 10:58:10;;;;;;;;;;;;;;;;;;4988354;28;20261;-58
2022/11/08 11:00:36;;;;;;;;;;;;;;;;;;4988985;28;19926;-58
2022/11/08 11:03:02;;;;;;;;;;;;;;;;;;4989412;28;19934;-58
2022/11/08 11:05:28;;;;;;;;;;;;;;;;;;4971507;28;19926;-59
2022/11/08 11:07:54;;;;;;;;;;;;;;;;;;4987726;28;19936;-58
2022/11/08 11:10:21;;;;;;;;;;;;;;;;;;4988969;28;19925;-58
2022/11/08 11:12:47;;;;;;;;;;;;;;;;;;4989223;28;19933;-59
2022/11/08 11:15:13;;;;;;;;;;;;;;;;;;4988746;28;19926;-60
2022/11/08 11:17:39;;;;;;;;;;;;;;;;;;4988574;28;20316;-58
2022/11/08 11:20:05;;;;;;;;;;;;;;;;;;4988661;28;19934;-59
2022/11/08 11:22:31;;;;;;;;;;;;;;;;;;4988557;28;19932;-58
2022/11/08 11:24:57;;;;;;;;;;;;;;;;;;4989194;28;19925;-58
2022/11/08 11:27:23;;;;;;;;;;;;;;;;;;4988991;28;19929;-58
2022/11/08 11:29:49;;;;;;;;;;;;;;;;;;4988667;28;19932;-58
2022/11/08 11:32:15;;;;;;;;;;;;;;;;;;4988390;28;19932;-59
2022/11/08 11:34:41;;;;;;;;;;;;;;;;;;4988810;28;19926;-58
2022/11/08 11:37:07;;;;;;;;;;;;;;;;;;4984433;28;20374;-59
2022/11/08 11:39:33;;;;;;;;;;;;;;;;;;4988659;28;19948;-58
2022/11/08 11:41:59;;;;;;;;;;;;;;;;;;4988754;28;19980;-57
2022/11/08 11:44:25;;;;;;;;;;;;;;;;;;4988210;28;19932;-59
2022/11/08 11:46:51;;;;;;;;;;;;;;;;;;4989053;28;19948;-57
2022/11/08 11:49:17;;;;;;;;;;;;;;;;;;4987464;28;19932;-60
2022/11/08 11:51:44;;;;;;;;;;;;;;;;;;4987744;28;19929;-59
2022/11/08 11:54:12;;;;;;;;;;;;;;;;;;4988721;28;19973;-58
2022/11/08 11:56:39;;;;;;;;;;;;;;;;;;4988403;28;19925;-58
2022/11/08 11:59:07;;;;;;;;;;;;;;;;;;4985380;28;19941;-60
2022/11/08 12:01:35;;;;;;;;;;;;;;;;;;4981733;28;20365;-59
2022/11/08 12:04:02;;;;;;;;;;;;;;;;;;4980091;28;20327;-58
2022/11/08 12:06:33;;;;;;;;;;;;;;;;;;4985146;28;19930;-60
2022/11/08 12:09:03;;;;;;;;;;;;;;;;;;4982352;28;20388;-59
2022/11/08 12:11:29;;;;;;;;;;;;;;;;;;4985713;28;19929;-58
2022/11/08 12:13:58;;;;;;;;;;;;;;;;;;4986284;28;19926;-58
2022/11/08 12:16:27;;;;;;;;;;;;;;;;;;4981583;28;20414;-58
2022/11/08 12:18:56;;;;;;;;;;;;;;;;;;4970649;28;20475;-58
2022/11/08 12:21:24;;;;;;;;;;;;;;;;;;4982053;28;19933;-58
2022/11/08 12:23:51;;;;;;;;;;;;;;;;;;4990008;28;20438;-58
2022/11/08 12:26:19;;;;;;;;;;;;;;;;;;4989769;28;19933;-57
2022/11/08 12:28:46;;;;;;;;;;;;;;;;;;4989226;28;19936;-58
2022/11/08 12:31:16;;;;;;;;;;;;;;;;;;4989685;28;19925;-58
2022/11/08 12:33:44;;;;;;;;;;;;;;;;;;4985899;28;19922;-58
2022/11/08 12:36:11;;;;;;;;;;;;;;;;;;4982054;28;19960;-59
2022/11/08 12:38:39;;;;;;;;;;;;;;;;;;4983169;28;19930;-57
2022/11/08 12:41:05;;;;;;;;;;;;;;;;;;4988916;28;19936;-59
2022/11/08 12:43:31;;;;;;;;;;;;;;;;;;4985587;28;20395;-57
2022/11/08 12:45:57;;;;;;;;;;;;;;;;;;4989075;28;19985;-57
2022/11/08 12:48:23;;;;;;;;;;;;;;;;;;4989214;28;20404;-57
2022/11/08 12:50:49;;;;;;;;;;;;;;;;;;4989198;28;19929;-57
2022/11/08 12:53:15;;;;;;;;;;;;;;;;;;4987278;28;20360;-57
2022/11/08 12:55:41;;;;;;;;;;;;;;;;;;4990669;28;20033;-57
2022/11/08 12:58:07;;;;;;;;;;;;;;;;;;4990791;28;20419;-58
2022/11/08 13:00:33;;;;;;;;;;;;;;;;;;4991138;28;19933;-58
2022/11/08 13:02:59;;;;;;;;;;;;;;;;;;4991203;28;20888;-58
2022/11/08 13:05:25;;;;;;;;;;;;;;;;;;4991427;28;19926;-57
2022/11/08 13:07:51;;;;;;;;;;;;;;;;;;4991041;28;19926;-57
2022/11/08 13:10:17;;;;;;;;;;;;;;;;;;4991022;28;19992;-58
2022/11/08 13:12:43;;;;;;;;;;;;;;;;;;4989968;28;19926;-57
2022/11/08 13:15:09;;;;;;;;;;;;;;;;;;4990767;28;19933;-57
2022/11/08 13:17:35;;;;;;;;;;;;;;;;;;4990841;28;19926;-57
2022/11/08 13:20:01;;;;;;;;;;;;;;;;;;4991103;28;19973;-58
2022/11/08 13:22:27;;;;;;;;;;;;;;;;;;4971387;28;20004;-59
2022/11/08 13:24:53;;;;;;;;;;;;;;;;;;4987820;28;19926;-57
2022/11/08 13:27:19;;;;;;;;;;;;;;;;;;4990424;28;19926;-57
2022/11/08 13:29:45;;;;;;;;;;;;;;;;;;4989406;28;20017;-57
2022/11/08 13:32:15;;;;;;;;;;;;;;;;;;4985598;28;19930;-58
2022/11/08 13:34:44;;;;;;;;;;;;;;;;;;4986265;28;19928;-57
2022/11/08 13:37:10;;;;;;;;;;;;;;;;;;4981447;28;19933;-57
2022/11/08 13:39:36;;;;;;;;;;;;;;;;;;4987799;28;19956;-58
2022/11/08 13:42:02;;;;;;;;;;;;;;;;;;4988114;28;19929;-58
2022/11/08 13:44:28;;;;;;;;;;;;;;;;;;4988217;28;19929;-58
2022/11/08 13:46:54;;;;;;;;;;;;;;;;;;4987689;28;19965;-57
2022/11/08 13:49:21;;;;;;;;;;;;;;;;;;4987331;28;19944;-57
2022/11/08 13:51:47;;;;;;;;;;;;;;;;;;4987560;28;20608;-57
2022/11/08 13:54:13;;;;;;;;;;;;;;;;;;4987095;28;19926;-58
2022/11/08 13:56:39;;;;;;;;;;;;;;;;;;4987754;28;19930;-57
2022/11/08 13:59:05;;;;;;;;;;;;;;;;;;4985821;28;19984;-57
2022/11/08 14:01:31;;;;;;;;;;;;;;;;;;4987897;28;19936;-57
2022/11/08 14:03:57;;;;;;;;;;;;;;;;;;4988259;28;19938;-57
2022/11/08 14:06:23;;;;;;;;;;;;;;;;;;4985096;28;19930;-58
2022/11/08 14:08:49;;;;;;;;;;;;;;;;;;4987359;28;19984;-57
2022/11/08 14:11:15;;;;;;;;;;;;;;;;;;4985216;28;19929;-57
2022/11/08 14:13:41;;;;;;;;;;;;;;;;;;4982185;28;20554;-57
2022/11/08 14:16:07;;;;;;;;;;;;;;;;;;4987600;28;19929;-57
2022/11/08 14:18:33;;;;;;;;;;;;;;;;;;4969323;28;19930;-57
2022/11/08 14:20:59;;;;;;;;;;;;;;;;;;4984684;28;19980;-58
2022/11/08 14:23:25;;;;;;;;;;;;;;;;;;4987009;28;19925;-58
2022/11/08 14:25:51;;;;;;;;;;;;;;;;;;4986933;28;20027;-58
2022/11/08 14:28:17;;;;;;;;;;;;;;;;;;4988501;28;19932;-58
2022/11/08 14:30:43;;;;;;;;;;;;;;;;;;4985868;28;19926;-57
2022/11/08 14:33:09;;;;;;;;;;;;;;;;;;4989502;28;19953;-57
2022/11/08 14:35:35;;;;;;;;;;;;;;;;;;4989699;28;19968;-58
2022/11/08 14:38:01;;;;;;;;;;;;;;;;;;4988957;28;19996;-57
2022/11/08 14:40:27;;;;;;;;;;;;;;;;;;4989879;28;20373;-58
2022/11/08 14:42:53;;;;;;;;;;;;;;;;;;4989150;28;19940;-57
2022/11/08 14:45:19;;;;;;;;;;;;;;;;;;4971975;28;20152;-57
2022/11/08 14:47:45;;;;;;;;;;;;;;;;;;4989511;28;19922;-57
2022/11/08 14:50:11;;;;;;;;;;;;;;;;;;4989158;28;19945;-58
2022/11/08 14:52:37;;;;;;;;;;;;;;;;;;4988835;28;19932;-57
2022/11/08 14:55:03;;;;;;;;;;;;;;;;;;4989542;28;19926;-57
2022/11/08 14:57:29;;;;;;;;;;;;;;;;;;4989436;28;20334;-57
2022/11/08 14:59:55;;;;;;;;;;;;;;;;;;4989715;28;19930;-58
2022/11/08 15:02:21;;;;;;;;;;;;;;;;;;4988533;28;19926;-57
2022/11/08 15:04:47;;;;;;;;;;;;;;;;;;4989004;28;19932;-58
2022/11/08 15:07:13;;;;;;;;;;;;;;;;;;4988708;28;20411;-57
2022/11/08 15:09:39;;;;;;;;;;;;;;;;;;4989077;28;19933;-58
2022/11/08 15:12:05;;;;;;;;;;;;;;;;;;4988851;28;20507;-58
2022/11/08 15:14:31;;;;;;;;;;;;;;;;;;4989004;28;19926;-59
2022/11/08 15:16:57;;;;;;;;;;;;;;;;;;4989193;28;19949;-58
2022/11/08 15:19:23;;;;;;;;;;;;;;;;;;4988396;28;20388;-58
2022/11/08 15:21:49;;;;;;;;;;;;;;;;;;4986970;28;19926;-57
2022/11/08 15:24:15;;;;;;;;;;;;;;;;;;4988964;28;19945;-57
2022/11/08 15:26:41;;;;;;;;;;;;;;;;;;4987096;28;19926;-58
2022/11/08 15:29:07;;;;;;;;;;;;;;;;;;4988389;28;20043;-57
2022/11/08 15:31:33;;;;;;;;;;;;;;;;;;4988309;28;19933;-58
2022/11/08 15:33:59;;;;;;;;;;;;;;;;;;4971569;28;19929;-58
2022/11/08 15:36:25;;;;;;;;;;;;;;;;;;4987322;28;19973;-58
2022/11/08 15:38:51;;;;;;;;;;;;;;;;;;4988240;28;20460;-57
2022/11/08 15:41:17;;;;;;;;;;;;;;;;;;4988442;28;19933;-57
2022/11/08 15:43:43;;;;;;;;;;;;;;;;;;4988196;28;19926;-58
2022/11/08 15:46:09;;;;;;;;;;;;;;;;;;4988112;28;19981;-57
2022/11/08 15:48:35;;;;;;;;;;;;;;;;;;4970653;28;19926;-58
2022/11/08 15:51:01;;;;;;;;;;;;;;;;;;4988043;28;19926;-57
2022/11/08 15:53:27;;;;;;;;;;;;;;;;;;4987651;28;19930;-58
2022/11/08 15:55:53;;;;;;;;;;;;;;;;;;4987570;28;19925;-58
2022/11/08 15:58:20;;;;;;;;;;;;;;;;;;4987814;28;19930;-59
2022/11/08 16:00:46;;;;;;;;;;;;;;;;;;4988274;28;19925;-57
2022/11/08 16:03:12;;;;;;;;;;;;;;;;;;4988375;28;20265;-58
2022/11/08 16:05:39;;;;;;;;;;;;;;;;;;4987547;28;19930;-57
2022/11/08 16:08:06;;;;;;;;;;;;;;;;;;4987951;28;19921;-57
2022/11/08 16:10:33;;;;;;;;;;;;;;;;;;4988640;28;19932;-57
2022/11/08 16:13:00;;;;;;;;;;;;;;;;;;4988194;28;19976;-57
2022/11/08 16:15:27;;;;;;;;;;;;;;;;;;4987813;28;19932;-57
2022/11/08 16:17:55;;;;;;;;;;;;;;;;;;4987473;28;19934;-57
2022/11/08 16:20:23;;;;;;;;;;;;;;;;;;4987965;28;19968;-57
2022/11/08 16:22:53;;;;;;;;;;;;;;;;;;4970101;28;19937;-57
2022/11/08 16:25:21;;;;;;;;;;;;;;;;;;4987948;28;19921;-58
2022/11/08 16:27:47;;;;;;;;;;;;;;;;;;4970513;28;20273;-57
2022/11/08 16:30:15;;;;;;;;;;;;;;;;;;4987355;28;19926;-57
2022/11/08 16:32:44;;;;;;;;;;;;;;;;;;4987870;28;19933;-58
2022/11/08 16:35:14;;;;;;;;;;;;;;;;;;4987666;28;20403;-57
2022/11/08 16:37:43;;;;;;;;;;;;;;;;;;4987224;28;19926;-58
2022/11/08 16:40:12;;;;;;;;;;;;;;;;;;4985335;28;19953;-57
2022/11/08 16:42:38;;;;;;;;;;;;;;;;;;4969035;28;19929;-58
2022/11/08 16:45:04;;;;;;;;;;;;;;;;;;4987602;28;19925;-60
2022/11/08 16:47:30;;;;;;;;;;;;;;;;;;4987577;28;19928;-59
2022/11/08 16:49:56;;;;;;;;;;;;;;;;;;4987348;28;19933;-59
2022/11/08 16:55:34;;;;;;;;;;;;;;;;;;4985502;28;20021;-58
2022/11/08 16:58:00;;;;;;;;;;;;;;;;;;4988017;28;20379;-58
2022/11/08 17:00:27;;;;;;;;;;;;;;;;;;4984967;28;20064;-58
2022/11/08 17:02:53;;;;;;;;;;;;;;;;;;4982899;28;20371;-58
2022/11/08 17:05:20;;;;;;;;;;;;;;;;;;4987490;28;19926;-58